createdAt,value
2022-11-21T00:00:59.975Z,62.50
2022-11-21T00:03:34.291Z,62.27
2022-11-21T00:06:06.416Z,61.91
2022-11-21T00:08:38.373Z,61.97
2022-11-21T00:11:10.330Z,62.16
2022-11-21T00:13:42.363Z,62.31
2022-11-21T00:16:16.113Z,62.25
2022-11-21T00:18:49.547Z,62.21
2022-11-21T00:21:23.093Z,62.28
2022-11-21T00:23:56.408Z,62.44
2022-11-21T00:26:28.283Z,62.40
2022-11-21T00:29:00.730Z,62.24
2022-11-21T00:31:32.946Z,61.98
2022-11-21T00:34:04.697Z,62.19
2022-11-21T00:36:36.538Z,62.59
2022-11-21T00:39:09.603Z,62.39
2022-11-21T00:41:42.241Z,62.12
2022-11-21T00:44:13.979Z,62.35
2022-11-21T00:46:46.952Z,62.58
2022-11-21T00:49:18.629Z,62.37
2022-11-21T00:51:51.006Z,62.35
2022-11-21T00:54:22.859Z,62.11
2022-11-21T00:56:55.014Z,62.07
2022-11-21T00:59:27.663Z,62.09
2022-11-21T01:02:00.103Z,62.56
2022-11-21T01:04:40.684Z,62.88
2022-11-21T01:07:15.010Z,63.17
2022-11-21T01:09:48.250Z,63.53
2022-11-21T01:12:27.187Z,63.71
2022-11-21T01:15:00.683Z,63.89
2022-11-21T01:17:35.891Z,63.92
2022-11-21T01:20:12.620Z,64.05
2022-11-21T01:22:44.342Z,64.41
2022-11-21T01:25:16.251Z,64.78
2022-11-21T01:27:50.040Z,64.88
2022-11-21T01:30:21.260Z,65.32
2022-11-21T01:32:53.610Z,66.12
2022-11-21T01:35:26.393Z,66.41
2022-11-21T01:37:58.661Z,66.55
2022-11-21T01:40:31.282Z,66.59
2022-11-21T01:43:12.883Z,66.94
2022-11-21T01:46:00.984Z,67.03
2022-11-21T01:48:40.262Z,67.06
2022-11-21T01:51:20.295Z,67.12
2022-11-21T01:54:01.552Z,67.33
2022-11-21T01:56:39.661Z,67.54
2022-11-21T01:59:22.863Z,67.56
2022-11-21T02:01:57.139Z,67.67
2022-11-21T02:04:33.196Z,68.18
2022-11-21T02:07:07.996Z,68.57
2022-11-21T02:09:44.483Z,68.45
2022-11-21T02:12:24.867Z,68.80
2022-11-21T02:15:01.712Z,68.71
2022-11-21T02:17:35.339Z,68.35
2022-11-21T02:31:40.197Z,67.79
2022-11-21T02:34:12.649Z,67.59
2022-11-21T02:36:48.907Z,67.70
2022-11-21T02:39:28.459Z,67.49
2022-11-21T02:42:06.895Z,67.30
2022-11-21T02:44:49.621Z,67.54
2022-11-21T02:47:23.603Z,67.73
2022-11-21T02:50:03.650Z,67.39
2022-11-21T02:52:35.418Z,67.38
2022-11-21T02:55:11.650Z,67.33
2022-11-21T02:57:44.622Z,67.48
2022-11-21T03:00:22.702Z,67.39
2022-11-21T03:02:56.539Z,67.42
2022-11-21T03:05:28.952Z,67.37
2022-11-21T03:08:04.029Z,67.65
2022-11-21T03:10:36.037Z,67.73
2022-11-21T03:13:08.843Z,67.71
2022-11-21T03:15:41.043Z,67.72
2022-11-21T03:18:12.821Z,67.78
2022-11-21T03:20:44.609Z,67.69
2022-11-21T03:23:16.446Z,67.73
2022-11-21T03:25:50.983Z,67.58
2022-11-21T03:28:24.062Z,67.53
2022-11-21T03:30:56.710Z,67.60
2022-11-21T03:33:29.177Z,67.45
2022-11-21T03:36:01.370Z,67.64
2022-11-21T03:38:35.962Z,68.00
2022-11-21T03:41:27.082Z,67.96
2022-11-21T03:43:59.159Z,67.73
2022-11-21T03:46:36.178Z,67.64
2022-11-21T03:49:09.585Z,67.65
2022-11-21T03:51:43.557Z,67.57
2022-11-21T03:54:16.022Z,67.83
2022-11-21T03:56:49.631Z,67.93
2022-11-21T03:59:21.313Z,67.96
2022-11-21T04:01:54.233Z,67.92
2022-11-21T04:04:26.511Z,67.84
2022-11-21T04:06:59.320Z,67.74
2022-11-21T04:09:32.401Z,67.74
2022-11-21T04:12:07.708Z,67.55
2022-11-21T04:14:40.167Z,67.36
2022-11-21T04:17:12.093Z,67.15
2022-11-21T04:19:46.214Z,67.31
2022-11-21T04:22:18.338Z,67.56
2022-11-21T04:24:50.182Z,67.44
2022-11-21T04:27:22.089Z,67.45
2022-11-21T04:29:53.898Z,67.63
2022-11-21T04:32:26.356Z,67.42
2022-11-21T04:34:58.994Z,67.43
2022-11-21T04:37:31.861Z,67.75
2022-11-21T04:40:03.943Z,67.61
2022-11-21T04:42:36.096Z,67.80
2022-11-21T04:45:14.043Z,67.37
2022-11-21T04:47:48.307Z,67.36
2022-11-21T04:50:21.909Z,67.40
2022-11-21T04:52:56.688Z,67.59
2022-11-21T04:55:35.277Z,67.81
2022-11-21T04:58:07.368Z,67.93
2022-11-21T05:00:39.489Z,67.86
2022-11-21T05:03:11.553Z,67.66
2022-11-21T05:05:44.078Z,67.71
2022-11-21T05:08:20.861Z,67.82
2022-11-21T05:11:09.148Z,67.95
2022-11-21T05:13:40.856Z,68.22
2022-11-21T05:16:12.833Z,67.95
2022-11-21T05:18:44.740Z,67.89
2022-11-21T05:21:17.577Z,68.05
2022-11-21T05:23:49.752Z,67.90
2022-11-21T05:26:23.546Z,68.09
2022-11-21T05:28:55.241Z,68.27
2022-11-21T05:31:27.314Z,68.36
2022-11-21T05:33:59.877Z,68.42
2022-11-21T05:36:35.162Z,68.64
2022-11-21T05:39:11.150Z,68.43
2022-11-21T05:41:44.186Z,68.49
2022-11-21T05:44:15.959Z,68.68
2022-11-21T05:46:50.500Z,68.67
2022-11-21T05:49:24.273Z,68.39
2022-11-21T05:51:56.387Z,68.39
2022-11-21T05:54:28.645Z,68.68
2022-11-21T05:57:01.600Z,68.35
2022-11-21T05:59:33.817Z,68.36
2022-11-21T06:02:23.505Z,68.56
2022-11-21T06:04:57.923Z,68.45
2022-11-21T06:07:30.169Z,68.84
2022-11-21T06:10:03.530Z,68.70
2022-11-21T06:12:35.927Z,68.83
2022-11-21T06:15:11.766Z,68.90
2022-11-21T06:17:44.151Z,68.60
2022-11-21T06:20:16.464Z,68.81
2022-11-21T06:22:53.502Z,68.95
2022-11-21T06:25:25.596Z,68.64
2022-11-21T06:27:57.601Z,68.78
2022-11-21T06:30:30.049Z,68.57
2022-11-21T06:33:04.291Z,68.64
2022-11-21T06:35:42.176Z,68.97
2022-11-21T06:38:22.002Z,68.93
2022-11-21T06:40:56.162Z,68.82
2022-11-21T06:43:29.989Z,69.04
2022-11-21T06:46:04.877Z,69.21
2022-11-21T06:48:40.532Z,68.97
2022-11-21T06:51:22.967Z,69.00
2022-11-21T06:53:58.223Z,68.60
2022-11-21T06:56:34.007Z,68.88
2022-11-21T06:59:09.082Z,69.00
2022-11-21T07:01:41.017Z,68.96
2022-11-21T07:04:15.138Z,68.96
2022-11-21T07:06:47.286Z,69.07
2022-11-21T07:09:32.740Z,69.04
2022-11-21T07:12:25.560Z,69.20
2022-11-21T07:14:57.358Z,69.05
2022-11-21T07:17:29.528Z,69.33
2022-11-21T07:20:01.280Z,69.32
2022-11-21T07:22:33.341Z,69.72
2022-11-21T07:25:08.094Z,69.65
2022-11-21T07:27:38.482Z,69.68
2022-11-21T07:30:18.723Z,69.95
2022-11-21T07:32:56.078Z,69.92
2022-11-21T07:35:29.702Z,70.04
2022-11-21T07:38:04.055Z,70.28
2022-11-21T07:40:36.140Z,70.69
2022-11-21T07:43:11.017Z,70.80
2022-11-21T07:45:43.959Z,70.42
2022-11-21T07:48:17.035Z,70.20
2022-11-21T07:50:49.368Z,70.34
2022-11-21T07:53:21.150Z,70.59
2022-11-21T07:55:55.048Z,70.73
2022-11-21T07:58:30.796Z,70.76
2022-11-21T08:01:06.508Z,70.86
2022-11-21T08:03:38.711Z,70.96
2022-11-21T08:06:14.069Z,71.17
2022-11-21T08:08:45.756Z,71.38
2022-11-21T08:11:17.961Z,71.27
2022-11-21T08:13:50.995Z,71.35
2022-11-21T08:16:28.989Z,71.44
2022-11-21T08:19:01.014Z,71.44
2022-11-21T08:21:32.958Z,71.76
2022-11-21T08:24:04.990Z,71.54
2022-11-21T08:26:36.980Z,71.68
2022-11-21T08:29:08.838Z,71.48
2022-11-21T08:31:41.322Z,71.63
2022-11-21T08:34:14.772Z,71.86
2022-11-21T08:36:48.100Z,72.06
2022-11-21T08:39:20.241Z,72.16
2022-11-21T08:42:04.745Z,72.01
2022-11-21T08:44:37.958Z,72.09
2022-11-21T08:47:11.063Z,72.10
2022-11-21T08:49:43.630Z,72.10
2022-11-21T08:52:18.331Z,72.02
2022-11-21T08:54:48.606Z,71.79
2022-11-21T08:57:20.630Z,72.15
2022-11-21T08:59:52.589Z,72.32
2022-11-21T09:02:24.971Z,72.41
2022-11-21T09:04:56.753Z,72.29
2022-11-21T09:07:28.808Z,72.38
2022-11-21T09:10:01.848Z,72.63
2022-11-21T09:12:34.971Z,72.44
2022-11-21T09:15:29.411Z,72.46
2022-11-21T09:18:05.487Z,72.64
2022-11-21T09:20:42.428Z,72.93
2022-11-21T09:23:18.199Z,72.57
2022-11-21T09:25:50.078Z,72.43
2022-11-21T09:28:22.706Z,72.84
2022-11-21T09:30:56.430Z,72.75
2022-11-21T09:33:28.167Z,72.50
2022-11-21T09:36:02.630Z,72.51
2022-11-21T09:38:34.634Z,72.56
2022-11-21T09:41:34.730Z,72.24
2022-11-21T09:44:18.820Z,72.37
2022-11-21T09:46:57.690Z,72.47
2022-11-21T09:49:33.837Z,72.44
2022-11-21T09:52:06.719Z,72.36
2022-11-21T09:54:50.423Z,72.31
2022-11-21T09:57:27.523Z,72.03
2022-11-21T10:00:05.773Z,72.18
2022-11-21T10:02:44.677Z,72.00
2022-11-21T10:05:17.691Z,71.67
2022-11-21T10:07:53.697Z,71.71
2022-11-21T10:10:50.815Z,71.49
2022-11-21T10:13:39.670Z,71.40
2022-11-21T10:16:21.084Z,71.50
2022-11-21T10:19:23.021Z,71.98
2022-11-21T10:22:19.004Z,71.80
2022-11-21T10:24:58.980Z,72.03
2022-11-21T10:27:39.427Z,71.76
2022-11-21T10:30:19.560Z,71.43
2022-11-21T10:33:00.927Z,71.62
2022-11-21T10:35:41.483Z,71.53
2022-11-21T10:38:22.632Z,71.38
2022-11-21T10:41:03.192Z,71.10
2022-11-21T10:44:01.258Z,71.23
2022-11-21T10:46:33.637Z,71.33
2022-11-21T10:49:09.670Z,71.60
2022-11-21T10:51:52.173Z,71.59
2022-11-21T10:54:37.197Z,71.69
2022-11-21T10:57:15.003Z,71.61
2022-11-21T11:00:02.036Z,71.56
2022-11-21T11:02:33.841Z,71.49
2022-11-21T11:05:22.423Z,71.22
2022-11-21T11:08:06.598Z,71.37
2022-11-21T11:10:43.210Z,71.37
2022-11-21T11:13:50.631Z,71.05
2022-11-21T11:16:26.162Z,70.62
2022-11-21T11:19:01.983Z,70.67
2022-11-21T11:21:46.113Z,70.07
2022-11-21T11:24:28.638Z,70.01
2022-11-21T11:27:04.187Z,69.97
2022-11-21T11:29:50.826Z,69.71
2022-11-21T11:32:25.299Z,69.84
2022-11-21T11:35:11.366Z,70.13
2022-11-21T11:37:45.148Z,70.29
2022-11-21T11:40:29.823Z,70.71
2022-11-21T11:43:41.411Z,70.92
2022-11-21T11:46:53.592Z,70.43
2022-11-21T11:49:59.473Z,70.10
2022-11-21T11:52:41.592Z,69.98
2022-11-21T11:55:21.581Z,69.94
2022-11-21T11:57:58.208Z,69.97
2022-11-21T12:00:40.812Z,70.00
2022-11-21T12:03:20.169Z,70.02
2022-11-21T12:06:14.347Z,70.09
2022-11-21T12:08:55.595Z,70.10
2022-11-21T12:11:53.897Z,70.02
2022-11-21T12:15:03.691Z,70.10
2022-11-21T12:17:44.548Z,70.37
2022-11-21T12:20:22.238Z,70.41
2022-11-21T12:22:56.460Z,70.10
2022-11-21T12:25:34.139Z,69.96
2022-11-21T12:28:18.294Z,70.09
2022-11-21T12:31:04.201Z,70.16
2022-11-21T12:33:44.624Z,70.50
2022-11-21T12:36:33.778Z,70.60
2022-11-21T12:39:29.271Z,71.07
2022-11-21T12:42:30.687Z,71.36
2022-11-21T12:45:27.422Z,71.79
2022-11-21T12:48:39.436Z,71.72
2022-11-21T12:52:02.846Z,71.81
2022-11-21T12:55:03.452Z,71.56
2022-11-21T12:57:49.400Z,71.67
2022-11-21T13:00:31.411Z,71.78
2022-11-21T13:03:48.167Z,71.82
2022-11-21T13:06:27.475Z,72.28
2022-11-21T13:09:05.361Z,72.37
2022-11-21T13:12:01.533Z,72.14
2022-11-21T13:14:48.788Z,72.38
2022-11-21T13:17:37.534Z,72.45
2022-11-21T13:20:20.788Z,72.86
2022-11-21T13:23:00.846Z,73.05
2022-11-21T13:25:50.359Z,72.89
2022-11-21T13:28:39.627Z,72.88
2022-11-21T13:31:45.184Z,73.47
2022-11-21T13:34:38.934Z,73.47
2022-11-21T13:38:01.101Z,73.72
2022-11-21T13:41:05.327Z,73.98
2022-11-21T13:43:37.946Z,73.99
2022-11-21T13:46:10.568Z,73.37
2022-11-21T13:49:15.173Z,73.30
2022-11-21T13:51:54.330Z,73.49
2022-11-21T13:54:48.708Z,73.52
2022-11-21T13:58:03.999Z,73.31
2022-11-21T14:00:51.041Z,73.14
2022-11-21T14:03:56.034Z,72.92
2022-11-21T14:06:43.859Z,73.03
2022-11-21T14:09:25.275Z,72.98
2022-11-21T14:12:03.171Z,73.01
2022-11-21T14:14:41.588Z,72.97
2022-11-21T14:17:30.076Z,73.15
2022-11-21T14:20:11.428Z,73.27
2022-11-21T14:22:49.372Z,73.12
2022-11-21T14:25:28.078Z,73.22
2022-11-21T14:28:02.665Z,73.22
2022-11-21T14:30:39.158Z,72.99
2022-11-21T14:33:50.005Z,72.86
2022-11-21T14:36:25.139Z,73.14
2022-11-21T14:39:34.847Z,73.22
2022-11-21T14:41:53.961Z,73.49
2022-11-21T14:44:26.966Z,73.52
2022-11-21T14:47:18.535Z,73.49
2022-11-21T14:49:55.348Z,73.35
2022-11-21T14:52:32.272Z,73.11
2022-11-21T14:55:28.978Z,73.09
2022-11-21T14:58:01.249Z,73.30
2022-11-21T15:00:58.523Z,73.14
2022-11-21T15:03:26.243Z,73.09
2022-11-21T15:06:07.936Z,72.85
2022-11-21T15:09:33.330Z,72.64
2022-11-21T15:11:39.233Z,72.57
2022-11-21T15:14:25.432Z,72.63
2022-11-21T15:16:59.722Z,72.64
2022-11-21T15:19:38.062Z,72.86
2022-11-21T15:22:25.199Z,72.93
2022-11-21T15:25:12.852Z,72.90
2022-11-21T15:27:45.321Z,72.54
2022-11-21T15:30:30.823Z,72.64
2022-11-21T15:33:11.591Z,72.68
2022-11-21T15:35:56.824Z,72.56
2022-11-21T15:38:44.918Z,72.48
2022-11-21T15:41:33.697Z,72.93
2022-11-21T15:44:24.109Z,72.93
2022-11-21T15:46:56.082Z,72.92
2022-11-21T15:49:34.856Z,73.02
2022-11-21T15:52:15.654Z,72.85
2022-11-21T15:54:48.886Z,72.76
2022-11-21T15:57:22.299Z,72.77
2022-11-21T15:59:56.501Z,72.86
2022-11-21T16:02:49.210Z,72.73
2022-11-21T16:05:22.046Z,72.61
2022-11-21T16:07:54.512Z,72.73
2022-11-21T16:10:28.114Z,72.49
2022-11-21T16:13:01.143Z,72.55
2022-11-21T16:15:33.551Z,72.73
2022-11-21T16:18:05.428Z,72.87
2022-11-21T16:20:38.714Z,72.88
2022-11-21T16:23:12.929Z,73.05
2022-11-21T16:25:55.962Z,73.26
2022-11-21T16:28:28.092Z,73.24
2022-11-21T16:31:03.002Z,73.18
2022-11-21T16:33:40.498Z,73.23
2022-11-21T16:36:16.437Z,73.39
2022-11-21T16:38:48.957Z,73.11
2022-11-21T16:41:23.708Z,72.97
2022-11-21T16:43:57.188Z,72.88
2022-11-21T16:46:30.454Z,72.75
2022-11-21T16:49:05.371Z,72.89
2022-11-21T16:51:36.489Z,72.73
2022-11-21T16:54:09.992Z,72.87
2022-11-21T16:56:41.934Z,72.70
2022-11-21T16:59:16.188Z,72.85
2022-11-21T17:01:48.917Z,72.92
2022-11-21T17:04:21.764Z,72.99
2022-11-21T17:06:54.730Z,72.90
2022-11-21T17:09:27.893Z,72.77
2022-11-21T17:12:02.093Z,72.98
2022-11-21T17:14:34.089Z,73.04
2022-11-21T17:17:07.536Z,72.98
2022-11-21T17:19:39.475Z,72.83
2022-11-21T17:22:12.139Z,72.57
2022-11-21T17:24:44.346Z,72.77
2022-11-21T17:27:16.442Z,72.68
2022-11-21T17:29:48.588Z,72.33
2022-11-21T17:32:20.884Z,72.39
2022-11-21T17:34:53.746Z,72.48
2022-11-21T17:37:25.999Z,72.50
2022-11-21T17:39:57.796Z,72.30
2022-11-21T17:42:30.092Z,71.97
2022-11-21T17:45:02.440Z,72.28
2022-11-21T17:47:37.569Z,72.03
2022-11-21T17:50:11.646Z,71.84
2022-11-21T17:52:47.035Z,71.78
2022-11-21T17:55:21.342Z,72.26
2022-11-21T17:57:53.226Z,71.99
2022-11-21T18:00:27.088Z,72.07
2022-11-21T18:03:00.364Z,72.20
2022-11-21T18:05:35.049Z,72.21
2022-11-21T18:08:07.832Z,71.72
2022-11-21T18:10:43.992Z,71.93
2022-11-21T18:13:20.305Z,71.84
2022-11-21T18:15:53.816Z,72.34
2022-11-21T18:18:28.239Z,72.48
2022-11-21T18:21:06.813Z,71.56
2022-11-21T18:23:45.336Z,71.31
2022-11-21T18:26:23.418Z,71.65
2022-11-21T18:29:34.430Z,71.43
2022-11-21T18:31:53.697Z,71.04
2022-11-21T18:34:26.207Z,71.00
2022-11-21T18:37:00.039Z,69.76
2022-11-21T18:39:33.311Z,69.56
2022-11-21T18:42:07.168Z,69.10
2022-11-21T18:44:39.262Z,69.81
2022-11-21T18:47:20.439Z,69.35
2022-11-21T18:49:54.177Z,68.96
2022-11-21T18:52:27.601Z,68.37
2022-11-21T18:55:01.519Z,68.12
2022-11-21T18:57:33.626Z,68.85
2022-11-21T19:00:09.451Z,68.22
2022-11-21T19:02:41.605Z,68.27
2022-11-21T19:05:20.351Z,68.74
2022-11-21T19:07:54.810Z,69.39
2022-11-21T19:10:42.618Z,69.79
2022-11-21T19:13:17.528Z,69.64
2022-11-21T19:15:50.283Z,69.59
2022-11-21T19:18:22.392Z,69.53
2022-11-21T19:20:54.980Z,69.88
2022-11-21T19:23:31.378Z,70.44
2022-11-21T19:26:04.054Z,70.22
2022-11-21T19:28:38.595Z,70.75
2022-11-21T19:31:14.100Z,70.95
2022-11-21T19:33:48.500Z,70.69
2022-11-21T19:36:22.737Z,71.05
2022-11-21T19:38:55.174Z,70.45
2022-11-21T19:41:31.053Z,70.39
2022-11-21T19:44:04.323Z,70.50
2022-11-21T19:46:40.404Z,70.50
2022-11-21T19:49:14.613Z,70.29
2022-11-21T19:51:46.887Z,70.44
2022-11-21T19:54:20.484Z,70.41
2022-11-21T19:56:53.838Z,70.25
2022-11-21T19:59:28.778Z,70.62
2022-11-21T20:02:02.904Z,70.73
2022-11-21T20:04:36.386Z,70.61
2022-11-21T20:07:08.801Z,70.71
2022-11-21T20:09:44.926Z,70.66
2022-11-21T20:12:17.687Z,70.84
2022-11-21T20:14:50.212Z,70.78
2022-11-21T20:17:25.668Z,70.92
2022-11-21T20:20:00.786Z,71.00
2022-11-21T20:22:34.288Z,71.09
2022-11-21T20:25:11.455Z,71.46
2022-11-21T20:27:43.948Z,71.09
2022-11-21T20:30:17.855Z,71.29
2022-11-21T20:32:50.914Z,70.86
2022-11-21T20:35:23.656Z,70.98
2022-11-21T20:37:57.429Z,70.78
2022-11-21T20:40:30.339Z,70.69
2022-11-21T20:43:04.360Z,70.67
2022-11-21T20:46:07.689Z,70.41
2022-11-21T20:48:29.478Z,70.56
2022-11-21T20:52:09.570Z,70.66
2022-11-21T20:54:01.645Z,70.68
2022-11-21T20:56:39.399Z,70.52
2022-11-21T20:59:14.682Z,70.75
2022-11-21T21:01:48.424Z,70.59
2022-11-21T21:04:20.475Z,70.58
2022-11-21T21:06:52.557Z,70.73
2022-11-21T21:09:24.519Z,70.39
2022-11-21T21:11:57.806Z,70.33
2022-11-21T21:14:31.515Z,70.30
2022-11-21T21:17:04.123Z,70.38
2022-11-21T21:19:37.251Z,70.52
2022-11-21T21:22:10.895Z,70.30
2022-11-21T21:24:43.087Z,70.38
2022-11-21T21:27:15.040Z,70.27
2022-11-21T21:29:47.134Z,70.18
2022-11-21T21:32:19.262Z,70.34
2022-11-21T21:34:51.126Z,70.61
2022-11-21T21:37:23.354Z,70.47
2022-11-21T21:39:55.875Z,70.55
2022-11-21T21:42:29.106Z,70.31
2022-11-21T21:45:02.723Z,70.39
2022-11-21T21:47:34.760Z,70.25
2022-11-21T21:50:15.606Z,70.52
2022-11-21T21:52:49.085Z,70.34
2022-11-21T21:55:21.050Z,70.44
2022-11-21T21:57:53.307Z,70.51
2022-11-21T22:00:25.335Z,70.66
2022-11-21T22:02:57.070Z,70.78
2022-11-21T22:05:28.897Z,70.94
2022-11-21T22:08:02.789Z,70.77
2022-11-21T22:10:34.707Z,70.77
2022-11-21T22:13:08.462Z,70.89
2022-11-21T22:15:40.975Z,70.73
2022-11-21T22:18:13.159Z,70.24
2022-11-21T22:20:45.951Z,70.30
2022-11-21T22:23:18.111Z,70.76
2022-11-21T22:25:56.072Z,70.69
2022-11-21T22:28:35.640Z,70.29
2022-11-21T22:31:10.696Z,70.00
2022-11-21T22:33:45.034Z,69.46
2022-11-21T22:36:19.439Z,69.27
2022-11-21T22:38:55.157Z,68.98
2022-11-21T22:41:28.716Z,69.09
2022-11-21T22:44:03.355Z,69.00
2022-11-21T22:46:36.307Z,68.91
2022-11-21T22:49:08.737Z,68.92
2022-11-21T22:51:41.113Z,69.11
2022-11-21T22:54:14.999Z,68.72
2022-11-21T22:56:46.777Z,68.93
2022-11-21T22:59:18.954Z,68.66
2022-11-21T23:01:50.868Z,68.77
2022-11-21T23:04:23.365Z,68.84
2022-11-21T23:06:55.246Z,68.90
2022-11-21T23:09:44.906Z,69.06
2022-11-21T23:12:17.024Z,69.17
2022-11-21T23:14:49.692Z,69.13
2022-11-21T23:17:21.926Z,69.28
2022-11-21T23:19:54.537Z,68.90
2022-11-21T23:22:26.326Z,69.03
2022-11-21T23:24:58.938Z,69.19
2022-11-21T23:27:30.797Z,69.07
2022-11-21T23:30:06.319Z,68.99
2022-11-21T23:32:38.391Z,69.26
2022-11-21T23:35:11.744Z,68.81
2022-11-21T23:37:43.731Z,68.72
2022-11-21T23:40:21.429Z,68.93
2022-11-21T23:42:55.802Z,69.04
2022-11-21T23:45:27.982Z,69.13
2022-11-21T23:48:00.383Z,69.28
2022-11-21T23:50:33.094Z,68.89
2022-11-21T23:53:07.533Z,68.81
2022-11-21T23:55:41.364Z,68.76
2022-11-21T23:58:13.946Z,68.82
